Time;durP1;ratioP1;P1;durP2;ratioP2;P2;SDS_P1;SDS_P2;PMS_P1;PMS_P2;Temp;Humidity;BMP_temperature;BMP_pressure;BME280_temperature;BME280_humidity;BME280_pressure;Samples;Min_cycle;Max_cycle;Signal;HPM_P1;HPM_P2
2022/12/03 00:01:00;;;;;;;26.70;12.83;;;3.90;69.10;;;;;;5072054;28;46436;-67
2022/12/03 00:03:27;;;;;;;26.40;14.00;;;3.80;69.30;;;;;;5067139;28;46574;-68
2022/12/03 00:05:53;;;;;;;32.57;13.80;;;3.70;68.60;;;;;;5067132;28;49151;-66
2022/12/03 00:08:19;;;;;;;27.70;13.17;;;3.70;70.00;;;;;;5066814;28;46405;-67
2022/12/03 00:10:44;;;;;;;28.17;13.40;;;3.60;70.30;;;;;;5068261;28;46315;-66
2022/12/03 00:13:10;;;;;;;29.00;14.13;;;3.60;70.40;;;;;;5066503;28;46593;-67
2022/12/03 00:15:36;;;;;;;28.43;13.07;;;3.60;69.60;;;;;;5070517;28;46444;-67
2022/12/03 00:18:02;;;;;;;34.40;14.40;;;3.60;70.60;;;;;;5071590;28;46363;-66
2022/12/03 00:20:27;;;;;;;30.93;13.27;;;3.50;70.70;;;;;;5067925;28;46469;-67
2022/12/03 00:22:53;;;;;;;30.03;13.83;;;3.40;70.60;;;;;;5064327;28;46399;-66
2022/12/03 00:25:19;;;;;;;33.17;15.37;;;3.40;69.70;;;;;;5065262;28;47971;-65
2022/12/03 00:27:45;;;;;;;34.17;14.63;;;3.40;70.80;;;;;;5067749;28;46491;-67
2022/12/03 00:30:11;;;;;;;30.27;14.60;;;3.40;70.80;;;;;;5067187;28;46346;-66
2022/12/03 00:32:37;;;;;;;33.00;15.80;;;3.50;70.70;;;;;;5068639;28;46442;-67
2022/12/03 00:35:03;;;;;;;38.07;16.00;;;3.50;69.90;;;;;;5068857;27;46711;-66
2022/12/03 00:37:29;;;;;;;33.53;15.20;;;3.50;70.80;;;;;;5069341;28;46522;-67
2022/12/03 00:39:54;;;;;;;31.33;14.27;;;3.50;70.60;;;;;;5067751;28;46465;-67
2022/12/03 00:42:20;;;;;;;40.20;16.60;;;3.50;70.50;;;;;;5067893;28;46333;-66
2022/12/03 00:44:46;;;;;;;35.10;14.40;;;3.50;69.70;;;;;;5065198;28;48439;-65
2022/12/03 00:47:11;;;;;;;33.73;15.50;;;3.50;70.70;;;;;;5068249;28;46287;-66
2022/12/03 00:49:37;;;;;;;36.80;16.20;;;3.50;70.80;;;;;;5069577;28;45932;-67
2022/12/03 00:52:03;;;;;;;43.97;17.33;;;3.40;71.00;;;;;;5066226;28;46238;-66
2022/12/03 00:54:29;;;;;;;39.87;17.00;;;3.40;71.20;;;;;;5068811;27;46379;-67
2022/12/03 00:56:55;;;;;;;38.63;16.20;;;3.30;71.40;;;;;;5066745;28;46451;-67
2022/12/03 00:59:20;;;;;;;44.60;17.20;;;3.30;71.80;;;;;;5068516;28;46468;-66
2022/12/03 01:01:46;;;;;;;42.07;17.50;;;3.20;71.90;;;;;;5067741;28;46743;-67
2022/12/03 01:04:12;;;;;;;44.73;16.77;;;3.20;71.10;;;;;;5067905;28;48974;-68
2022/12/03 01:06:38;;;;;;;45.83;17.03;;;3.10;72.00;;;;;;5072296;28;46434;-65
2022/12/03 01:09:03;;;;;;;41.78;16.27;;;3.20;72.00;;;;;;5067915;28;46370;-67
2022/12/03 01:11:38;;;;;;;38.47;16.30;;;3.20;71.80;;;;;;5071013;28;46448;-66
2022/12/03 01:14:10;;;;;;;46.33;17.42;;;3.10;72.00;;;;;;5064475;28;47886;-66
2022/12/03 01:16:36;;;;;;;39.72;16.55;;;3.20;71.70;;;;;;5071425;28;46473;-68
2022/12/03 01:19:03;;;;;;;41.13;17.25;;;3.20;71.60;;;;;;5067663;28;46494;-69
2022/12/03 01:21:29;;;;;;;43.70;17.00;;;3.20;71.60;;;;;;5069555;28;46572;-66
2022/12/03 01:23:55;;;;;;;39.17;15.63;;;3.20;70.80;;;;;;5064195;28;48249;-66
2022/12/03 01:26:21;;;;;;;36.30;15.90;;;3.20;71.70;;;;;;5067829;28;46558;-68
2022/12/03 01:28:47;;;;;;;38.90;15.70;;;3.20;72.00;;;;;;5070573;28;46362;-68
2022/12/03 01:33:57;;;;;;;42.00;17.95;;;3.30;71.70;;;;;;5063350;28;46425;-68
2022/12/03 01:36:23;;;;;;;38.57;15.93;;;3.30;71.70;;;;;;5068857;27;46231;-67
2022/12/03 01:38:48;;;;;;;36.83;15.73;;;3.30;71.70;;;;;;5066029;28;46368;-68
2022/12/03 01:41:17;;;;;;;42.10;15.23;;;3.20;71.80;;;;;;5069697;28;46442;-67
2022/12/03 01:43:43;;;;;;;38.60;15.85;;;3.20;71.10;;;;;;5066137;28;47982;-67
2022/12/03 01:46:13;;;;;;;44.20;17.35;;;3.20;72.10;;;;;;5066270;27;46290;-68
2022/12/03 01:48:39;;;;;;;42.30;16.98;;;3.10;72.00;;;;;;5064901;28;46256;-68
2022/12/03 01:51:05;;;;;;;39.30;16.45;;;3.20;72.10;;;;;;5062454;28;46640;-66
2022/12/03 01:53:31;;;;;;;38.63;16.15;;;3.20;71.90;;;;;;5066940;28;49084;-68
2022/12/03 01:55:57;;;;;;;39.87;16.20;;;3.20;70.50;;;;;;5068364;27;46320;-68
2022/12/03 01:58:27;;;;;;;41.13;16.87;;;3.20;71.70;;;;;;5069536;28;46382;-68
2022/12/03 02:00:53;;;;;;;33.27;15.17;;;3.20;71.60;;;;;;5075470;28;46355;-69
2022/12/03 02:03:25;;;;;;;37.27;15.30;;;3.20;71.90;;;;;;5068283;28;48282;-67
2022/12/03 02:05:51;;;;;;;31.85;14.40;;;3.20;70.60;;;;;;5065624;27;46397;-65
2022/12/03 02:08:37;;;;;;;39.53;15.15;;;3.20;71.70;;;;;;5065424;28;46423;-66
2022/12/03 02:11:09;;;;;;;37.03;15.73;;;3.20;72.30;;;;;;5077264;28;46381;-65
2022/12/03 02:13:36;;;;;;;38.28;16.17;;;3.10;72.00;;;;;;5065453;28;47928;-66
2022/12/03 02:16:03;;;;;;;41.38;15.75;;;3.10;72.00;;;;;;5060821;28;46454;-65
2022/12/03 02:18:28;;;;;;;33.17;15.35;;;3.10;72.00;;;;;;5067979;28;46267;-65
2022/12/03 02:21:00;;;;;;;35.87;15.40;;;3.00;71.90;;;;;;5065508;28;46067;-66
2022/12/03 02:23:34;;;;;;;41.13;16.92;;;3.10;72.00;;;;;;5068313;28;46381;-68
2022/12/03 02:26:00;;;;;;;48.97;15.68;;;3.10;71.00;;;;;;5067243;28;46401;-66
2022/12/03 02:28:25;;;;;;;41.97;16.07;;;3.20;72.20;;;;;;5066337;28;46346;-69
2022/12/03 02:30:51;;;;;;;40.90;15.50;;;3.10;72.00;;;;;;5064040;28;46306;-66
2022/12/03 02:33:17;;;;;;;36.97;17.03;;;3.10;72.00;;;;;;5083595;27;48279;-66
2022/12/03 02:35:43;;;;;;;34.23;14.57;;;3.10;72.00;;;;;;5065824;28;46288;-67
2022/12/03 02:38:19;;;;;;;35.95;15.13;;;3.10;72.00;;;;;;5065876;28;46358;-67
2022/12/03 02:40:48;;;;;;;34.67;16.17;;;3.10;72.00;;;;;;5063746;28;46636;-66
2022/12/03 02:43:16;;;;;;;34.63;15.20;;;3.10;72.10;;;;;;5063964;28;47841;-66
2022/12/03 02:45:45;;;;;;;36.38;15.65;;;3.20;71.10;;;;;;5062751;28;46379;-66
2022/12/03 02:48:15;;;;;;;37.30;16.95;;;3.20;72.10;;;;;;5057764;28;46364;-67
2022/12/03 02:50:53;;;;;;;34.83;16.00;;;3.20;72.10;;;;;;5062305;28;46426;-67
2022/12/03 02:53:35;;;;;;;38.65;15.50;;;3.20;72.10;;;;;;5064092;28;48698;-67
2022/12/03 02:56:03;;;;;;;35.55;15.60;;;3.10;71.00;;;;;;5076287;28;46795;-67
2022/12/03 02:58:31;;;;;;;40.17;16.75;;;3.80;72.60;;;;;;5065389;28;46447;-69
2022/12/03 03:00:58;;;;;;;35.80;15.70;;;3.10;72.00;;;;;;5062958;28;46414;-67
2022/12/03 03:03:27;;;;;;;37.90;15.27;;;3.10;71.00;;;;;;5082773;27;48288;-67
2022/12/03 03:05:55;;;;;;;32.72;14.50;;;3.10;71.00;;;;;;5065860;28;46368;-66
2022/12/03 03:08:22;;;;;;;37.15;15.35;;;3.00;72.00;;;;;;5067153;28;46634;-68
2022/12/03 03:10:48;;;;;;;36.92;16.38;;;3.10;72.00;;;;;;5069475;28;46421;-65
2022/12/03 03:13:16;;;;;;;38.40;16.20;;;3.10;72.00;;;;;;5067825;28;46333;-66
2022/12/03 03:15:42;;;;;;;46.17;17.83;;;3.10;71.00;;;;;;5067402;28;46035;-67
2022/12/03 03:18:10;;;;;;;43.17;17.52;;;3.10;72.00;;;;;;5065064;28;46465;-66
2022/12/03 03:20:36;;;;;;;46.63;17.97;;;3.10;72.00;;;;;;5070099;28;45915;-66
2022/12/03 03:23:16;;;;;;;43.08;17.83;;;3.00;71.90;;;;;;5069946;28;48246;-67
2022/12/03 03:25:50;;;;;;;47.35;19.05;;;3.10;71.00;;;;;;5084094;27;46414;-66
2022/12/03 03:28:16;;;;;;;44.95;20.08;;;3.00;71.90;;;;;;5069229;28;46346;-66
2022/12/03 03:30:43;;;;;;;48.80;17.65;;;3.00;71.90;;;;;;5070075;28;46412;-66
2022/12/03 03:33:10;;;;;;;49.90;17.67;;;3.10;72.00;;;;;;5065749;28;48156;-66
2022/12/03 03:35:37;;;;;;;43.30;17.92;;;3.00;70.90;;;;;;5065693;28;46458;-68
2022/12/03 03:38:03;;;;;;;42.67;16.63;;;3.00;71.90;;;;;;5069491;28;46400;-67
2022/12/03 03:40:29;;;;;;;50.15;18.80;;;3.00;71.90;;;;;;5068347;28;46468;-68
2022/12/03 03:42:56;;;;;;;42.90;17.93;;;3.00;71.90;;;;;;5069018;28;48992;-68
2022/12/03 03:45:22;;;;;;;43.80;17.90;;;2.90;70.80;;;;;;5067607;28;46562;-66
2022/12/03 03:47:48;;;;;;;39.13;16.95;;;2.90;71.90;;;;;;5072833;28;46420;-68
2022/12/03 03:50:16;;;;;;;45.25;18.05;;;2.90;71.80;;;;;;5070921;28;46347;-66
2022/12/03 03:52:42;;;;;;;45.45;18.42;;;2.90;71.80;;;;;;5069310;28;47223;-69
2022/12/03 03:55:09;;;;;;;45.97;17.40;;;3.00;70.90;;;;;;5063433;28;46575;-66
2022/12/03 03:57:35;;;;;;;39.88;18.13;;;2.90;71.90;;;;;;5069338;28;46345;-68
2022/12/03 04:00:03;;;;;;;46.23;17.47;;;2.90;71.80;;;;;;5069758;28;46122;-67
2022/12/03 04:02:31;;;;;;;39.22;17.25;;;2.80;71.70;;;;;;5075166;28;47864;-67
2022/12/03 04:04:57;;;;;;;42.70;15.88;;;2.70;70.80;;;;;;5068612;28;46371;-68
2022/12/03 04:07:23;;;;;;;39.77;16.70;;;2.70;72.00;;;;;;5064077;28;46727;-66
2022/12/03 04:09:49;;;;;;;44.23;17.57;;;2.80;71.80;;;;;;5078419;28;46455;-66
2022/12/03 04:14:59;;;;;;;40.10;16.50;;;2.80;71.80;;;;;;5071812;28;46360;-67
2022/12/03 04:17:25;;;;;;;41.25;16.13;;;2.80;71.80;;;;;;5069463;28;46485;-66
2022/12/03 04:19:51;;;;;;;44.38;16.98;;;2.90;72.00;;;;;;5068628;28;46396;-66
2022/12/03 04:30:31;;;;;;;44.28;15.65;;;2.90;71.80;;;;;;5062253;28;46363;-67
2022/12/03 04:35:41;;;;;;;50.50;17.95;;;2.80;70.70;;;;;;5069022;28;46449;-68
2022/12/03 04:38:08;;;;;;;47.83;19.13;;;2.70;71.70;;;;;;5062780;28;46360;-67
2022/12/03 04:43:17;;;;;;;48.53;17.35;;;2.60;72.20;;;;;;5068533;28;46364;-67
2022/12/03 04:45:43;;;;;;;42.17;14.30;;;2.70;70.80;;;;;;5066601;28;46627;-67
2022/12/03 04:48:09;;;;;;;39.93;17.90;;;2.50;72.50;;;;;;5064519;28;46342;-67
2022/12/03 04:50:34;;;;;;;36.47;16.00;;;2.50;72.70;;;;;;5064274;28;45897;-67
2022/12/03 04:53:00;;;;;;;39.23;15.70;;;2.50;72.60;;;;;;5083805;27;48449;-69
2022/12/03 04:55:26;;;;;;;35.57;14.57;;;2.50;71.70;;;;;;5064048;28;46391;-69
2022/12/03 04:57:51;;;;;;;39.53;16.77;;;2.40;72.80;;;;;;5060086;28;46367;-66
2022/12/03 05:00:17;;;;;;;32.73;14.97;;;2.40;72.80;;;;;;5063350;28;46448;-65
2022/12/03 05:02:43;;;;;;;46.70;15.40;;;2.40;72.90;;;;;;5067283;28;48132;-67
2022/12/03 05:05:09;;;;;;;44.07;15.17;;;2.40;71.80;;;;;;5065977;28;46445;-66
2022/12/03 05:07:35;;;;;;;37.78;12.90;;;2.40;72.90;;;;;;5068227;28;46449;-66
2022/12/03 05:10:02;;;;;;;45.13;16.30;;;2.30;74.00;;;;;;5064087;28;46453;-66
2022/12/03 05:12:28;;;;;;;37.40;14.70;;;2.40;73.00;;;;;;5068127;28;46528;-68
2022/12/03 05:14:53;;;;;;;37.97;13.93;;;2.30;72.10;;;;;;5065307;28;46351;-66
2022/12/03 05:17:19;;;;;;;46.93;16.90;;;2.30;73.20;;;;;;5062416;28;46306;-67
2022/12/03 05:22:29;;;;;;;30.23;11.82;;;2.20;73.20;;;;;;5067944;28;46800;-68
2022/12/03 05:24:54;;;;;;;33.73;15.20;;;2.20;73.70;;;;;;5067588;28;46303;-68
2022/12/03 05:27:20;;;;;;;29.20;12.00;;;2.10;73.80;;;;;;5090642;27;46375;-67
2022/12/03 05:29:46;;;;;;;37.37;15.53;;;2.20;73.50;;;;;;5070573;28;46374;-65
2022/12/03 05:32:12;;;;;;;32.65;13.80;;;2.20;73.40;;;;;;5064388;28;48926;-65
2022/12/03 05:34:38;;;;;;;44.97;15.83;;;2.20;72.40;;;;;;5069325;28;46492;-66
2022/12/03 05:37:04;;;;;;;36.83;14.30;;;2.20;73.60;;;;;;5064563;28;46437;-68
2022/12/03 05:39:29;;;;;;;34.80;13.67;;;2.10;73.70;;;;;;5066888;28;46449;-66
2022/12/03 05:44:39;;;;;;;30.52;13.80;;;2.20;72.30;;;;;;5068215;28;46373;-66
2022/12/03 05:47:05;;;;;;;52.53;16.50;;;2.20;73.30;;;;;;5069339;28;46518;-66
2022/12/03 05:49:30;;;;;;;36.27;13.77;;;2.20;73.30;;;;;;5062237;28;46556;-66
2022/12/03 05:51:56;;;;;;;42.83;14.50;;;2.20;73.50;;;;;;5067891;28;46467;-67
2022/12/03 05:54:21;;;;;;;32.27;13.23;;;2.20;72.30;;;;;;5063572;28;46543;-67
2022/12/03 05:56:47;;;;;;;36.67;14.03;;;2.20;73.50;;;;;;5068841;28;46432;-69
2022/12/03 05:59:13;;;;;;;34.73;15.07;;;2.30;73.40;;;;;;5066598;28;46454;-66
2022/12/03 06:01:38;;;;;;;38.47;14.97;;;2.20;73.20;;;;;;5062877;28;48069;-67
2022/12/03 06:04:04;;;;;;;37.03;14.90;;;2.20;73.20;;;;;;5065774;28;46377;-69
2022/12/03 06:06:30;;;;;;;34.45;13.30;;;2.30;72.90;;;;;;5067023;28;46526;-66
2022/12/03 06:08:56;;;;;;;31.67;13.40;;;2.40;72.70;;;;;;5067252;28;46615;-66
2022/12/03 06:11:22;;;;;;;30.30;12.40;;;2.40;72.60;;;;;;5068278;28;48203;-66
2022/12/03 06:13:47;;;;;;;31.07;12.10;;;2.40;71.70;;;;;;5067403;28;47232;-67
2022/12/03 06:16:13;;;;;;;29.43;13.07;;;2.40;72.50;;;;;;5064885;28;46375;-66
2022/12/03 06:18:39;;;;;;;24.10;12.27;;;2.50;72.60;;;;;;5068369;28;46361;-66
2022/12/03 06:21:05;;;;;;;29.47;12.93;;;2.50;72.40;;;;;;5068262;28;47913;-67
2022/12/03 06:23:31;;;;;;;27.95;11.65;;;2.60;72.50;;;;;;5062451;28;46484;-65
2022/12/03 06:25:56;;;;;;;23.70;10.67;;;2.60;71.20;;;;;;5069147;28;46359;-66
2022/12/03 06:28:22;;;;;;;24.73;11.97;;;2.50;72.30;;;;;;5067237;28;46327;-66
2022/12/03 06:30:48;;;;;;;25.93;12.10;;;2.50;72.40;;;;;;5065544;28;47792;-67
2022/12/03 06:33:13;;;;;;;32.57;13.30;;;2.40;72.70;;;;;;5072559;27;46494;-66
2022/12/03 06:35:39;;;;;;;29.80;12.57;;;2.30;71.90;;;;;;5070373;28;46539;-66
2022/12/03 06:38:05;;;;;;;29.20;12.10;;;2.30;73.10;;;;;;5069737;28;46489;-66
2022/12/03 06:40:31;;;;;;;24.80;11.60;;;2.40;73.10;;;;;;5067472;28;48837;-68
2022/12/03 06:42:56;;;;;;;25.40;11.97;;;2.30;73.00;;;;;;5067781;28;46399;-67
2022/12/03 06:45:22;;;;;;;28.73;12.80;;;2.30;72.20;;;;;;5069348;28;46431;-65
2022/12/03 06:47:48;;;;;;;26.53;10.50;;;2.30;73.40;;;;;;5064555;28;46652;-65
2022/12/03 06:50:14;;;;;;;27.60;11.83;;;2.30;73.20;;;;;;5067128;27;46738;-67
2022/12/03 06:52:39;;;;;;;26.17;10.47;;;2.40;72.90;;;;;;5066113;28;46431;-65
2022/12/03 06:55:05;;;;;;;33.27;12.90;;;2.40;71.60;;;;;;5068431;28;46375;-66
2022/12/03 06:57:31;;;;;;;27.50;12.93;;;2.50;72.40;;;;;;5066619;28;46493;-66
2022/12/03 06:59:57;;;;;;;28.93;12.70;;;2.50;72.30;;;;;;5067421;28;48530;-67
2022/12/03 07:02:23;;;;;;;30.90;13.20;;;2.60;72.60;;;;;;5065610;28;46408;-67
2022/12/03 07:04:48;;;;;;;27.53;13.37;;;2.40;71.50;;;;;;5068727;28;46476;-66
2022/12/03 07:07:14;;;;;;;25.80;11.80;;;2.40;72.80;;;;;;5064841;28;46362;-67
2022/12/03 07:09:40;;;;;;;31.43;11.63;;;2.40;72.90;;;;;;5069208;28;48113;-66
2022/12/03 07:12:06;;;;;;;33.22;15.15;;;2.30;72.90;;;;;;5068148;28;46762;-68
2022/12/03 07:14:31;;;;;;;36.78;15.32;;;2.30;72.20;;;;;;5065084;28;46639;-68
2022/12/03 07:16:57;;;;;;;37.80;13.47;;;2.20;73.10;;;;;;5066071;28;46560;-65
2022/12/03 07:19:22;;;;;;;25.20;11.77;;;2.10;74.10;;;;;;5065138;28;48134;-66
2022/12/03 07:21:48;;;;;;;28.90;13.27;;;2.00;74.20;;;;;;5065273;28;45833;-67
2022/12/03 07:24:14;;;;;;;24.40;11.10;;;2.10;74.10;;;;;;5065825;28;46475;-67
2022/12/03 07:26:39;;;;;;;32.27;12.73;;;2.20;73.90;;;;;;5065410;28;46263;-67
2022/12/03 07:29:05;;;;;;;28.23;11.17;;;2.20;73.80;;;;;;5067170;28;48129;-67
2022/12/03 07:31:31;;;;;;;24.97;11.20;;;2.60;73.90;;;;;;5060391;28;46401;-66
2022/12/03 07:33:57;;;;;;;28.90;12.30;;;2.10;72.80;;;;;;5063006;28;46353;-66
2022/12/03 07:36:22;;;;;;;23.23;9.97;;;2.10;73.80;;;;;;5065643;28;46639;-66
2022/12/03 07:38:48;;;;;;;24.40;11.93;;;2.00;73.80;;;;;;5065810;28;48172;-66
2022/12/03 07:41:14;;;;;;;21.87;10.80;;;2.10;73.70;;;;;;5065041;28;46370;-65
2022/12/03 07:43:39;;;;;;;24.67;10.80;;;2.10;72.70;;;;;;5064212;28;46391;-66
2022/12/03 07:46:05;;;;;;;24.07;10.00;;;2.10;73.70;;;;;;5070046;28;46548;-66
2022/12/03 07:48:31;;;;;;;25.07;10.53;;;2.10;73.60;;;;;;5062589;28;47270;-66
2022/12/03 07:50:57;;;;;;;28.13;12.03;;;2.10;73.50;;;;;;5069423;28;46526;-69
2022/12/03 07:53:23;;;;;;;23.30;10.32;;;2.00;74.10;;;;;;5064973;28;46332;-67
2022/12/03 07:55:48;;;;;;;22.80;10.90;;;2.10;73.50;;;;;;5065368;28;47624;-66
2022/12/03 07:58:14;;;;;;;23.97;10.60;;;2.10;73.30;;;;;;5067447;28;48212;-66
2022/12/03 08:00:40;;;;;;;27.77;11.15;;;2.30;73.10;;;;;;5085609;27;46443;-67
2022/12/03 08:03:06;;;;;;;20.55;9.77;;;2.20;73.00;;;;;;5065632;28;46424;-67
2022/12/03 08:05:32;;;;;;;18.10;9.60;;;2.20;73.10;;;;;;5065667;28;46421;-66
2022/12/03 08:07:57;;;;;;;21.47;9.93;;;2.20;73.10;;;;;;5068967;28;49168;-66
2022/12/03 08:10:25;;;;;;;22.23;9.73;;;2.20;73.00;;;;;;5069910;28;46458;-67
2022/12/03 08:12:52;;;;;;;21.63;9.77;;;2.20;72.90;;;;;;5069951;28;46421;-66
2022/12/03 08:15:22;;;;;;;22.17;10.30;;;2.30;71.90;;;;;;5068390;28;46584;-66
2022/12/03 08:17:54;;;;;;;18.58;8.57;;;2.30;72.70;;;;;;5067252;28;47833;-68
2022/12/03 08:20:23;;;;;;;24.60;10.50;;;2.40;72.60;;;;;;5068921;28;46382;-66
2022/12/03 08:22:51;;;;;;;19.50;9.15;;;2.40;72.40;;;;;;5070850;28;46418;-67
2022/12/03 08:25:24;;;;;;;19.45;9.30;;;2.40;72.50;;;;;;5066958;28;45904;-67
2022/12/03 08:27:52;;;;;;;19.73;10.00;;;2.40;72.60;;;;;;5066720;28;48784;-67
2022/12/03 08:30:18;;;;;;;17.13;8.95;;;2.40;72.40;;;;;;5078807;28;46705;-68
2022/12/03 08:32:44;;;;;;;27.95;9.23;;;2.40;72.40;;;;;;5070026;28;46311;-68
2022/12/03 08:35:11;;;;;;;24.67;10.40;;;2.30;72.50;;;;;;5071449;28;46649;-67
2022/12/03 08:37:37;;;;;;;20.95;8.85;;;2.30;72.80;;;;;;5068131;28;46566;-67
2022/12/03 08:40:21;;;;;;;18.00;8.70;;;2.30;72.60;;;;;;5070119;28;46462;-66
2022/12/03 08:42:47;;;;;;;19.17;8.90;;;2.30;72.70;;;;;;5066839;28;46382;-68
2022/12/03 08:45:28;;;;;;;19.90;10.02;;;2.30;72.80;;;;;;5067125;28;46551;-67
2022/12/03 08:48:12;;;;;;;27.33;11.90;;;2.30;72.50;;;;;;5070012;28;46486;-66
2022/12/03 08:50:40;;;;;;;42.38;16.67;;;2.30;72.70;;;;;;5068471;28;46609;-67
2022/12/03 08:53:26;;;;;;;69.22;27.80;;;2.40;72.70;;;;;;5066804;28;45892;-66
2022/12/03 08:55:53;;;;;;;35.70;13.63;;;2.30;72.70;;;;;;5062351;28;46639;-66
2022/12/03 08:58:23;;;;;;;20.17;9.60;;;2.40;72.60;;;;;;5075388;28;48078;-67
2022/12/03 09:01:09;;;;;;;113.03;39.63;;;2.40;72.50;;;;;;5064429;28;46248;-68
2022/12/03 09:03:36;;;;;;;32.22;12.88;;;2.40;72.50;;;;;;5068333;28;45964;-66
2022/12/03 09:06:03;;;;;;;20.35;9.90;;;2.50;73.30;;;;;;5071917;28;46251;-66
2022/12/03 09:08:28;;;;;;;29.65;12.38;;;2.60;72.10;;;;;;5066604;28;48270;-67
2022/12/03 09:10:54;;;;;;;28.07;12.00;;;2.60;72.00;;;;;;5065548;28;46387;-65
2022/12/03 09:13:20;;;;;;;62.97;25.60;;;2.60;71.60;;;;;;5069074;28;46364;-66
2022/12/03 09:15:45;;;;;;;24.23;10.90;;;2.60;70.50;;;;;;5069233;28;46407;-67
2022/12/03 09:18:13;;;;;;;27.57;12.70;;;2.70;71.70;;;;;;5067924;28;47989;-66
2022/12/03 09:20:42;;;;;;;20.88;10.45;;;2.70;71.70;;;;;;5067998;28;46511;-67
2022/12/03 09:23:07;;;;;;;76.25;33.03;;;2.70;71.70;;;;;;5065141;28;46349;-66
2022/12/03 09:25:33;;;;;;;25.20;11.13;;;2.60;70.60;;;;;;5082765;27;45982;-65
2022/12/03 09:27:59;;;;;;;34.53;14.90;;;2.70;71.70;;;;;;5064833;28;46894;-69
2022/12/03 09:30:24;;;;;;;25.00;11.20;;;2.80;70.70;;;;;;5063068;28;46272;-66
2022/12/03 09:32:50;;;;;;;69.87;28.73;;;2.80;71.80;;;;;;5067726;28;45759;-67
2022/12/03 09:35:16;;;;;;;53.10;21.83;;;2.70;70.60;;;;;;5068347;28;46621;-66
2022/12/03 09:37:42;;;;;;;32.93;15.13;;;2.80;71.80;;;;;;5066791;28;48206;-68
2022/12/03 09:40:08;;;;;;;24.93;11.77;;;2.80;71.70;;;;;;5065460;28;46507;-66
2022/12/03 09:42:34;;;;;;;19.23;9.57;;;2.90;71.90;;;;;;5070176;28;46640;-65
2022/12/03 09:45:02;;;;;;;38.75;17.15;;;3.00;70.90;;;;;;5063327;28;46756;-66
2022/12/03 09:47:29;;;;;;;31.25;14.18;;;3.00;71.90;;;;;;5067204;28;46382;-68
2022/12/03 09:49:56;;;;;;;51.63;20.90;;;3.00;71.90;;;;;;5065127;28;46459;-66
2022/12/03 09:52:27;;;;;;;28.73;14.38;;;3.00;71.90;;;;;;5059321;27;46497;-66
2022/12/03 09:54:53;;;;;;;32.45;15.40;;;3.10;71.00;;;;;;5090342;27;46429;-66
2022/12/03 09:57:19;;;;;;;25.63;12.47;;;3.10;72.00;;;;;;5059006;28;47887;-66
2022/12/03 09:59:45;;;;;;;22.50;11.03;;;3.20;72.10;;;;;;5061764;27;46375;-65
2022/12/03 10:02:22;;;;;;;26.38;12.50;;;3.30;71.80;;;;;;5053770;28;46444;-65
2022/12/03 10:04:48;;;;;;;25.67;11.40;;;3.10;70.80;;;;;;5061159;28;46013;-66
2022/12/03 10:07:14;;;;;;;25.92;11.80;;;3.10;72.00;;;;;;5077041;27;47929;-67
2022/12/03 10:09:40;;;;;;;27.17;14.30;;;3.10;72.00;;;;;;5063343;28;46586;-66
2022/12/03 10:12:11;;;;;;;23.53;10.47;;;3.10;72.00;;;;;;5062699;28;46396;-66
2022/12/03 10:14:38;;;;;;;30.05;13.77;;;2.90;70.80;;;;;;5061123;28;46568;-66
2022/12/03 10:17:04;;;;;;;24.25;11.63;;;2.90;71.90;;;;;;5059217;28;47880;-67
2022/12/03 10:19:32;;;;;;;28.80;12.73;;;2.90;71.80;;;;;;5075869;27;46464;-67
2022/12/03 10:21:58;;;;;;;24.55;12.02;;;2.90;71.80;;;;;;5065912;28;46545;-66
2022/12/03 10:24:30;;;;;;;21.33;11.90;;;3.30;71.10;;;;;;5064565;28;46389;-68
2022/12/03 10:27:03;;;;;;;20.67;10.70;;;2.90;71.90;;;;;;5064487;28;47094;-65
2022/12/03 10:29:34;;;;;;;25.08;11.25;;;2.90;71.80;;;;;;5063891;27;46580;-66
2022/12/03 10:32:06;;;;;;;26.92;11.85;;;2.90;71.80;;;;;;5065631;28;46371;-66
2022/12/03 10:34:38;;;;;;;27.70;13.00;;;3.00;71.90;;;;;;5062871;28;46434;-66
2022/12/03 10:37:13;;;;;;;29.90;12.70;;;3.10;72.00;;;;;;5065286;28;48590;-66
2022/12/03 10:40:07;;;;;;;23.35;11.07;;;3.20;72.10;;;;;;5060303;28;46655;-66
2022/12/03 10:42:38;;;;;;;28.88;14.07;;;3.10;72.00;;;;;;5064693;28;46436;-67
2022/12/03 10:45:12;;;;;;;31.08;12.75;;;3.10;71.90;;;;;;5064272;28;46245;-68
2022/12/03 10:47:37;;;;;;;34.83;16.15;;;3.00;71.90;;;;;;5063872;28;48615;-66
2022/12/03 10:50:13;;;;;;;33.63;15.60;;;3.10;72.00;;;;;;5068223;28;45905;-68
2022/12/03 10:52:39;;;;;;;26.38;13.05;;;3.00;71.90;;;;;;5066256;28;46400;-67
2022/12/03 10:55:05;;;;;;;25.53;12.20;;;3.10;72.00;;;;;;5066718;27;46448;-65
2022/12/03 10:57:31;;;;;;;25.27;10.95;;;3.20;72.10;;;;;;5069139;27;46601;-65
2022/12/03 10:59:57;;;;;;;31.47;12.23;;;3.20;72.10;;;;;;5066494;28;46507;-67
2022/12/03 11:02:24;;;;;;;27.23;12.57;;;3.20;72.10;;;;;;5064334;28;46352;-67
2022/12/03 11:04:50;;;;;;;21.23;10.10;;;3.20;72.00;;;;;;5063247;28;46515;-68
2022/12/03 11:07:20;;;;;;;25.25;12.27;;;3.20;72.10;;;;;;5065249;28;48689;-67
2022/12/03 11:09:48;;;;;;;24.75;11.90;;;3.20;72.00;;;;;;5064885;28;46482;-66
2022/12/03 11:12:26;;;;;;;29.38;10.90;;;3.20;71.50;;;;;;5066665;28;45925;-64
2022/12/03 11:14:52;;;;;;;23.75;11.70;;;3.20;72.00;;;;;;5064101;28;46547;-66
2022/12/03 11:17:39;;;;;;;33.75;14.40;;;3.10;72.00;;;;;;5059294;28;46339;-66
2022/12/03 11:20:23;;;;;;;26.48;12.05;;;3.00;71.90;;;;;;5060174;28;46957;-67
2022/12/03 11:22:54;;;;;;;28.50;12.18;;;3.20;71.80;;;;;;5064910;28;46423;-66
2022/12/03 11:25:25;;;;;;;20.48;9.88;;;3.10;71.50;;;;;;5068829;28;46228;-67
2022/12/03 11:28:12;;;;;;;24.17;11.20;;;3.00;71.60;;;;;;5060600;28;48215;-69
2022/12/03 11:30:50;;;;;;;21.40;10.70;;;3.00;71.90;;;;;;5070992;28;46387;-66
2022/12/03 11:33:20;;;;;;;23.67;10.00;;;2.60;71.60;;;;;;5067958;28;45802;-66
2022/12/03 11:36:04;;;;;;;19.23;9.90;;;2.90;70.80;;;;;;5066476;28;45939;-67
2022/12/03 11:38:36;;;;;;;24.13;12.43;;;2.90;71.90;;;;;;5062780;27;48007;-66
2022/12/03 11:41:25;;;;;;;23.90;11.73;;;2.90;71.80;;;;;;5070699;28;46499;-66
2022/12/03 11:43:51;;;;;;;22.65;11.32;;;2.90;70.80;;;;;;5069567;28;46397;-67
2022/12/03 11:46:46;;;;;;;22.93;10.43;;;2.90;71.90;;;;;;5069940;28;46640;-67
2022/12/03 11:49:37;;;;;;;20.98;10.32;;;2.90;71.80;;;;;;5063881;28;49022;-69
2022/12/03 11:52:19;;;;;;;21.15;9.82;;;2.80;71.70;;;;;;5061705;28;46273;-68
2022/12/03 11:54:50;;;;;;;20.67;9.95;;;2.80;70.70;;;;;;5068122;28;46520;-66
2022/12/03 11:57:26;;;;;;;19.88;9.93;;;2.80;71.80;;;;;;5068713;28;46610;-66
2022/12/03 12:00:01;;;;;;;20.13;9.90;;;2.70;71.70;;;;;;5066641;28;47944;-66
2022/12/03 12:02:27;;;;;;;17.45;8.93;;;2.80;71.20;;;;;;5070584;28;46439;-68
2022/12/03 12:04:53;;;;;;;22.23;10.00;;;2.90;70.00;;;;;;5069061;28;46453;-66
2022/12/03 12:07:37;;;;;;;21.83;10.40;;;2.90;71.00;;;;;;5070622;28;46477;-67
2022/12/03 12:10:03;;;;;;;26.73;10.75;;;3.00;70.20;;;;;;5066015;28;47973;-68
2022/12/03 12:12:36;;;;;;;19.83;8.93;;;3.00;70.00;;;;;;5066908;28;46575;-71
2022/12/03 12:15:37;;;;;;;19.52;10.20;;;3.00;69.90;;;;;;5092686;27;45865;-67
2022/12/03 12:18:40;;;;;;;20.33;10.32;;;3.00;70.30;;;;;;5068445;28;46458;-66
2022/12/03 12:21:46;;;;;;;22.45;10.63;;;3.00;70.10;;;;;;5067734;28;46504;-66
2022/12/03 12:24:41;;;;;;;26.05;10.40;;;3.10;70.10;;;;;;5060607;28;46345;-68
2022/12/03 12:27:13;;;;;;;25.50;11.40;;;3.00;70.00;;;;;;5067949;28;46609;-66
2022/12/03 12:29:42;;;;;;;23.58;11.68;;;2.90;70.10;;;;;;5065984;28;46493;-66
2022/12/03 12:32:08;;;;;;;27.60;12.05;;;2.80;70.50;;;;;;5069962;28;46821;-69
2022/12/03 12:34:42;;;;;;;25.83;11.97;;;2.80;69.50;;;;;;5065406;28;46370;-66
2022/12/03 12:37:13;;;;;;;33.78;14.68;;;2.80;70.50;;;;;;5082317;27;46459;-67
2022/12/03 12:39:38;;;;;;;27.40;12.52;;;2.70;70.50;;;;;;5062660;28;46341;-65
2022/12/03 12:42:37;;;;;;;22.20;11.60;;;2.70;70.60;;;;;;5070355;27;48046;-66
2022/12/03 12:45:15;;;;;;;41.38;19.15;;;2.70;69.90;;;;;;5061803;28;46448;-67
2022/12/03 12:48:08;;;;;;;47.90;19.90;;;2.70;71.00;;;;;;5084340;27;46114;-68
2022/12/03 12:50:35;;;;;;;31.98;13.60;;;2.70;70.90;;;;;;5059624;27;46937;-66
2022/12/03 12:53:09;;;;;;;37.75;16.77;;;2.60;70.90;;;;;;5069604;28;46524;-66
2022/12/03 12:55:39;;;;;;;86.05;34.67;;;2.60;69.90;;;;;;5067225;28;46608;-66
2022/12/03 12:58:13;;;;;;;93.95;35.80;;;2.50;71.30;;;;;;5068521;28;46414;-66
2022/12/03 13:00:39;;;;;;;99.28;38.70;;;2.50;71.30;;;;;;5065143;28;46743;-66
2022/12/03 13:03:06;;;;;;;61.43;24.43;;;2.60;71.30;;;;;;5068821;28;47029;-67
2022/12/03 13:05:43;;;;;;;104.75;40.75;;;2.60;70.50;;;;;;5077377;28;46484;-66
2022/12/03 13:08:29;;;;;;;58.05;25.80;;;2.70;71.10;;;;;;5066747;28;46420;-67
2022/12/03 13:10:57;;;;;;;32.10;14.23;;;2.70;71.10;;;;;;5072593;28;46477;-66